Kezdőlap
METAR-TAF:

METAR-TAF

Repülőterek :

Daşoguz, Türkmenisztán

földrajzi szélesség: 41-45-53N, földrajzi hosszúság: 059-49-59E, magasság: 83 m

Jelenlegi meteorológiai megfigyelések

A jelentés 1 órával és 11 perccel ezelõtt készült, 20:00 UTC
Keleti szél 4 kt
Hőmérséklet -2°C
Páratartalom 50%
Légköri nyomás 1028 hPa
Látótávolság: 8000 m

METAR: UTAT 182000Z 10004KT 8000 NSC M02/M11 Q1028 R08/CLRD70 NOSIG

Idő: 02:11 (21:11 UTC)

Előrejelzés

A jelentés 4 órával és 25 perccel ezelõtt készült, 16:46 UTC
Az előrejelzés 18-én 18 óra UTC és 19-én 18 óra UTC között érvényes
Különbözõ irányokból fújó szél 4 kt
Látótávolság 10 km, vagy több
felhőtlen 1500 m magasságban, és nincs gomolyfelhõ
19-én 01 óra UTC és 19-én 04 óra UTC között ideiglenes
Észak-északkeleti szél 10 kt
Látótávolság: 3000 m
Szakadozott felhőzet 700 lábon
Párásság

TAF: UTAT 181646Z 1818/1918 VRB04KT CAVOK TEMPO 1901/1904 03010KT 3000 BR BKN007

Meteorológiai megfigyelések és előrejelzések több, mint 4000 repülőtéren (METAR és TAF jelentéseket).

A térképen piros és sárga pontok jelzik az elérhető meteorológiai állomásokat.

Mozgassa az egeret a pont fölött, hogy megjelenjen az állomás neve.

Azután kattintson az időjárási megfigyelések és előrejelzések megtekintéséhez.

A térkép megváltoztatása: kattintson a fekete keresztel jelölt zöld gombra ráközelítéshez, a vonallal jelölt zöld gombra távolításhoz, vagy a zöld nyilakra a szomszédos térképek eléréséhez.


METAR-TAF: